createdAt,value
2023-01-21T00:00:54.531Z,28.58
2023-01-21T00:01:56.794Z,24.67
2023-01-21T00:02:59.090Z,25.45
2023-01-21T00:04:01.314Z,23.05
2023-01-21T00:05:03.846Z,23.38
2023-01-21T00:06:07.107Z,22.10
2023-01-21T00:07:09.526Z,23.35
2023-01-21T00:08:11.747Z,36.25
2023-01-21T00:09:14.084Z,24.60
2023-01-21T00:10:16.559Z,36.92
2023-01-21T00:11:18.957Z,23.70
2023-01-21T00:12:21.157Z,35.17
2023-01-21T00:13:23.491Z,36.58
2023-01-21T00:14:25.762Z,36.05
2023-01-21T00:15:28.220Z,19.67
2023-01-21T00:16:30.681Z,24.73
2023-01-21T00:17:35.891Z,17.60
2023-01-21T00:18:38.253Z,18.33
2023-01-21T00:19:40.448Z,25.40
2023-01-21T00:20:42.731Z,17.10
2023-01-21T00:21:45.253Z,17.17
2023-01-21T00:22:47.581Z,15.55
2023-01-21T00:23:50.076Z,16.05
2023-01-21T00:24:52.292Z,18.40
2023-01-21T00:26:01.712Z,16.15
2023-01-21T00:27:03.999Z,21.40
2023-01-21T00:28:06.278Z,17.17
2023-01-21T00:29:10.447Z,16.02
2023-01-21T00:30:13.134Z,18.05
2023-01-21T00:31:15.581Z,15.63
2023-01-21T00:32:19.496Z,19.23
2023-01-21T00:33:21.749Z,14.65
2023-01-21T00:34:24.063Z,17.50
2023-01-21T00:35:26.517Z,15.13
2023-01-21T00:36:29.801Z,20.63
2023-01-21T00:37:32.158Z,20.48
2023-01-21T00:38:35.119Z,20.88
2023-01-21T00:39:42.612Z,18.15
2023-01-21T00:40:44.839Z,18.27
2023-01-21T00:41:47.071Z,14.32
2023-01-21T00:42:49.276Z,17.20
2023-01-21T00:43:51.850Z,19.02
2023-01-21T00:44:54.939Z,16.98
2023-01-21T00:45:57.538Z,16.60
2023-01-21T00:46:59.888Z,17.73
2023-01-21T00:48:02.225Z,18.70
2023-01-21T00:49:04.531Z,17.65
2023-01-21T00:50:07.848Z,19.17
2023-01-21T00:51:11.114Z,17.02
2023-01-21T00:52:13.359Z,21.55
2023-01-21T00:53:15.535Z,18.65
2023-01-21T00:54:17.890Z,16.85
2023-01-21T00:55:20.093Z,18.50
2023-01-21T00:56:22.544Z,19.55
2023-01-21T00:57:25.213Z,18.30
2023-01-21T00:58:28.015Z,19.95
2023-01-21T00:59:30.362Z,22.45
2023-01-21T01:00:32.869Z,19.30
2023-01-21T01:01:37.855Z,15.10
2023-01-21T01:02:40.371Z,18.05
2023-01-21T01:03:43.259Z,18.60
2023-01-21T01:04:45.823Z,17.08
2023-01-21T01:05:48.029Z,16.60
2023-01-21T01:06:50.260Z,17.13
2023-01-21T01:07:52.556Z,19.02
2023-01-21T01:08:58.354Z,19.88
2023-01-21T01:10:00.581Z,16.63
2023-01-21T01:11:03.583Z,20.30
2023-01-21T01:12:06.448Z,19.05
2023-01-21T01:13:08.803Z,21.80
2023-01-21T01:14:11.081Z,16.27
2023-01-21T01:15:13.304Z,19.52
2023-01-21T01:16:16.160Z,20.33
2023-01-21T01:17:18.460Z,17.42
2023-01-21T01:18:20.715Z,18.73
2023-01-21T01:19:22.930Z,21.73
2023-01-21T01:20:25.115Z,23.08
2023-01-21T01:21:27.582Z,19.08
2023-01-21T01:22:29.849Z,15.10
2023-01-21T01:23:32.522Z,17.95
2023-01-21T01:24:34.751Z,16.50
2023-01-21T01:25:37.989Z,17.80
2023-01-21T01:26:42.284Z,15.15
2023-01-21T01:27:44.686Z,15.77
2023-01-21T01:28:47.160Z,18.48
2023-01-21T01:29:49.321Z,16.13
2023-01-21T01:30:51.731Z,16.70
2023-01-21T01:31:54.290Z,16.55
2023-01-21T01:32:56.563Z,16.42
2023-01-21T01:33:59.287Z,18.85
2023-01-21T01:35:01.654Z,13.05
2023-01-21T01:36:06.894Z,19.58
2023-01-21T01:37:09.106Z,15.75
2023-01-21T01:38:11.627Z,16.67
2023-01-21T01:39:13.941Z,16.55
2023-01-21T01:40:16.464Z,14.88
2023-01-21T01:41:23.945Z,16.27
2023-01-21T01:42:26.221Z,16.90
2023-01-21T01:43:59.186Z,17.85
2023-01-21T01:45:05.686Z,15.65
2023-01-21T01:46:07.918Z,16.65
2023-01-21T01:47:10.662Z,15.68
2023-01-21T01:48:18.644Z,18.17
2023-01-21T01:49:22.191Z,17.88
2023-01-21T01:50:32.426Z,18.27
2023-01-21T01:51:48.272Z,16.92
2023-01-21T01:52:50.566Z,14.60
2023-01-21T01:53:53.526Z,17.85
2023-01-21T01:54:58.757Z,15.52
2023-01-21T01:56:01.933Z,16.70
2023-01-21T01:57:08.817Z,18.45
2023-01-21T01:58:14.596Z,16.40
2023-01-21T01:59:18.057Z,17.13
2023-01-21T02:02:12.392Z,23.85
2023-01-21T02:03:35.191Z,18.92
2023-01-21T02:04:45.789Z,18.52
2023-01-21T02:05:48.605Z,20.52
2023-01-21T02:06:54.511Z,16.60
2023-01-21T02:07:56.703Z,18.65
2023-01-21T02:08:58.967Z,18.08
2023-01-21T02:10:02.230Z,18.98
2023-01-21T02:11:12.491Z,19.50
2023-01-21T02:12:15.853Z,16.40
2023-01-21T02:13:18.133Z,19.00
2023-01-21T02:14:20.376Z,17.80
2023-01-21T02:15:30.882Z,20.13
2023-01-21T02:17:04.232Z,19.05
2023-01-21T02:19:42.979Z,19.58
2023-01-21T02:21:11.193Z,21.15
2023-01-21T02:22:28.412Z,18.42
2023-01-21T02:23:55.824Z,15.52
2023-01-21T02:25:18.391Z,16.83
2023-01-21T02:26:42.676Z,16.35
2023-01-21T02:27:59.869Z,19.33
2023-01-21T02:29:19.998Z,18.08
2023-01-21T02:30:40.212Z,14.88
2023-01-21T02:31:54.240Z,18.95
2023-01-21T02:33:30.279Z,15.88
2023-01-21T02:34:48.787Z,19.13
2023-01-21T02:36:11.005Z,16.58
2023-01-21T02:37:31.572Z,15.55
2023-01-21T02:38:59.131Z,14.18
2023-01-21T02:40:27.244Z,16.75
2023-01-21T02:42:06.130Z,16.83
2023-01-21T02:43:36.660Z,15.60
2023-01-21T02:44:59.478Z,15.80
2023-01-21T02:46:13.586Z,14.23
2023-01-21T02:47:54.031Z,14.25
2023-01-21T02:49:00.252Z,13.52
2023-01-21T02:50:12.566Z,14.85
2023-01-21T02:51:14.946Z,14.27
2023-01-21T02:52:21.726Z,15.30
2023-01-21T02:53:32.250Z,15.88
2023-01-21T02:54:40.270Z,12.82
2023-01-21T02:55:43.567Z,15.30
2023-01-21T02:56:45.899Z,15.73
2023-01-21T02:57:54.591Z,14.73
2023-01-21T02:59:02.243Z,14.38
2023-01-21T03:00:50.954Z,19.52
2023-01-21T03:01:56.110Z,14.60
2023-01-21T03:03:13.416Z,14.77
2023-01-21T03:04:27.455Z,14.90
2023-01-21T03:05:48.467Z,14.93
2023-01-21T03:07:04.836Z,15.32
2023-01-21T03:08:18.835Z,15.38
2023-01-21T03:09:25.756Z,10.65
2023-01-21T03:10:34.849Z,14.07
2023-01-21T03:11:37.357Z,17.77
2023-01-21T03:12:55.077Z,14.98
2023-01-21T03:14:40.845Z,16.48
2023-01-21T03:16:13.552Z,16.90
2023-01-21T03:17:27.761Z,15.40
2023-01-21T03:18:36.735Z,13.27
2023-01-21T03:20:03.823Z,13.82
2023-01-21T03:21:10.587Z,12.98
2023-01-21T03:22:17.517Z,14.88
2023-01-21T03:23:33.867Z,17.38
2023-01-21T03:24:38.286Z,18.63
2023-01-21T03:25:41.434Z,17.92
2023-01-21T03:26:47.781Z,20.38
2023-01-21T03:27:52.259Z,18.08
2023-01-21T03:28:58.395Z,19.77
2023-01-21T03:30:06.136Z,22.50
2023-01-21T03:31:23.810Z,18.63
2023-01-21T03:32:28.921Z,22.52
2023-01-21T03:33:35.526Z,18.52
2023-01-21T03:34:42.036Z,17.65
2023-01-21T03:35:46.933Z,19.15
2023-01-21T03:36:58.059Z,18.60
2023-01-21T03:38:11.145Z,19.88
2023-01-21T03:39:35.703Z,20.52
2023-01-21T03:40:48.671Z,19.40
2023-01-21T03:41:50.933Z,19.40
2023-01-21T03:42:56.466Z,20.90
2023-01-21T03:43:59.298Z,19.08
2023-01-21T03:45:01.906Z,24.45
2023-01-21T03:46:15.053Z,22.45
2023-01-21T03:47:36.370Z,22.23
2023-01-21T03:48:55.025Z,21.17
2023-01-21T03:50:01.174Z,22.02
2023-01-21T03:51:09.848Z,25.98
2023-01-21T03:52:13.681Z,23.88
2023-01-21T03:53:16.176Z,23.75
2023-01-21T03:54:18.473Z,24.77
2023-01-21T03:55:21.715Z,24.38
2023-01-21T03:56:27.299Z,22.48
2023-01-21T03:57:29.643Z,24.02
2023-01-21T03:58:32.226Z,23.80
2023-01-21T03:59:34.564Z,25.75
2023-01-21T04:00:36.908Z,26.02
2023-01-21T04:01:39.630Z,24.42
2023-01-21T04:02:41.850Z,30.17
2023-01-21T04:03:44.305Z,24.73
2023-01-21T04:04:47.515Z,29.33
2023-01-21T04:05:49.829Z,25.80
2023-01-21T04:06:52.052Z,27.95
2023-01-21T04:07:54.290Z,27.75
2023-01-21T04:08:56.598Z,26.98
2023-01-21T04:09:58.850Z,27.13
2023-01-21T04:11:01.047Z,30.02
2023-01-21T04:12:03.563Z,28.00
2023-01-21T04:13:05.763Z,30.05
2023-01-21T04:14:08.063Z,34.35
2023-01-21T04:15:10.615Z,33.78
2023-01-21T04:16:12.852Z,30.00
2023-01-21T04:17:15.084Z,27.38
2023-01-21T04:18:17.386Z,31.48
2023-01-21T04:19:19.591Z,31.52
2023-01-21T04:20:21.799Z,28.80
2023-01-21T04:21:24.053Z,32.50
2023-01-21T04:22:26.390Z,33.38
2023-01-21T04:23:28.660Z,32.17
2023-01-21T04:24:33.101Z,32.38
2023-01-21T04:25:36.663Z,31.48
2023-01-21T04:26:38.977Z,34.08
2023-01-21T04:27:41.195Z,37.30
2023-01-21T04:28:43.539Z,31.25
2023-01-21T04:29:46.301Z,36.05
2023-01-21T04:30:48.936Z,32.33
2023-01-21T04:31:51.252Z,34.20
2023-01-21T04:32:53.576Z,33.33
2023-01-21T04:33:55.764Z,33.53
2023-01-21T04:34:58.202Z,33.15
2023-01-21T04:36:01.039Z,32.22
2023-01-21T04:37:03.378Z,34.53
2023-01-21T04:38:06.485Z,31.05
2023-01-21T04:39:09.040Z,32.03
2023-01-21T04:40:11.952Z,37.35
2023-01-21T04:41:14.186Z,36.63
2023-01-21T04:42:16.526Z,33.05
2023-01-21T04:43:18.741Z,33.67
2023-01-21T04:44:21.033Z,35.15
2023-01-21T04:45:23.642Z,36.30
2023-01-21T04:46:25.839Z,36.58
2023-01-21T04:47:28.290Z,35.13
2023-01-21T04:48:31.207Z,35.40
2023-01-21T04:49:33.415Z,39.88
2023-01-21T04:50:35.690Z,38.03
2023-01-21T04:51:37.932Z,35.30
2023-01-21T04:52:40.584Z,36.60
2023-01-21T04:53:42.786Z,43.35
2023-01-21T04:54:44.952Z,42.63
2023-01-21T04:55:47.172Z,44.47
2023-01-21T04:56:49.624Z,41.50
2023-01-21T04:57:51.882Z,43.92
2023-01-21T04:58:54.149Z,49.78
2023-01-21T04:59:56.422Z,49.35
2023-01-21T05:00:58.671Z,47.85
2023-01-21T05:02:00.915Z,49.25
2023-01-21T05:03:03.195Z,51.67
2023-01-21T05:04:05.402Z,48.53
2023-01-21T05:05:08.436Z,48.65
2023-01-21T05:06:10.688Z,48.58
2023-01-21T05:07:13.150Z,52.03
2023-01-21T05:08:15.679Z,55.42
2023-01-21T05:09:17.871Z,52.88
2023-01-21T05:10:20.258Z,50.58
2023-01-21T05:11:23.139Z,51.83
2023-01-21T05:12:25.468Z,52.13
2023-01-21T05:13:27.714Z,58.38
2023-01-21T05:14:29.970Z,56.92
2023-01-21T05:15:32.626Z,57.90
2023-01-21T05:16:34.916Z,60.65
2023-01-21T05:17:37.111Z,58.85
2023-01-21T05:18:40.612Z,58.97
2023-01-21T05:19:42.916Z,60.72
2023-01-21T05:20:45.210Z,58.05
2023-01-21T05:21:47.408Z,61.28
2023-01-21T05:22:49.673Z,60.38
2023-01-21T05:23:51.992Z,57.42
2023-01-21T05:24:54.431Z,57.95
2023-01-21T05:25:56.721Z,58.17
2023-01-21T05:26:58.923Z,64.22
2023-01-21T05:28:01.715Z,60.78
2023-01-21T05:29:04.010Z,61.42
2023-01-21T05:30:06.943Z,62.63
2023-01-21T05:31:09.358Z,58.38
2023-01-21T05:32:11.776Z,55.35
2023-01-21T05:33:14.316Z,57.92
2023-01-21T05:34:16.586Z,56.53
2023-01-21T05:35:21.069Z,57.90
2023-01-21T05:36:23.353Z,60.33
2023-01-21T05:37:25.633Z,55.88
2023-01-21T05:38:28.515Z,54.72
2023-01-21T05:39:30.784Z,53.03
2023-01-21T05:40:33.118Z,55.63
2023-01-21T05:41:35.397Z,54.00
2023-01-21T05:42:37.585Z,56.25
2023-01-21T05:43:40.070Z,52.20
2023-01-21T05:44:42.526Z,55.78
2023-01-21T05:45:44.861Z,52.00
2023-01-21T05:46:47.157Z,53.30
2023-01-21T05:47:49.451Z,49.83
2023-01-21T05:48:51.803Z,46.75
2023-01-21T05:49:54.087Z,43.17
2023-01-21T05:50:58.350Z,47.10
2023-01-21T05:52:00.998Z,45.25
2023-01-21T05:53:03.351Z,46.13
2023-01-21T05:54:05.635Z,43.42
2023-01-21T05:55:08.181Z,42.45
2023-01-21T05:56:10.618Z,41.03
2023-01-21T05:57:12.797Z,41.13
2023-01-21T05:58:15.051Z,41.28
2023-01-21T05:59:17.279Z,37.58
2023-01-21T06:00:19.936Z,36.03
2023-01-21T06:01:22.596Z,38.72
2023-01-21T06:02:25.204Z,36.30
2023-01-21T06:03:27.582Z,42.63
2023-01-21T06:04:30.904Z,39.42
2023-01-21T06:05:33.133Z,37.88
2023-01-21T06:06:35.436Z,33.08
2023-01-21T06:07:40.281Z,36.75
2023-01-21T06:08:42.467Z,34.80
2023-01-21T06:09:44.638Z,35.20
2023-01-21T06:10:46.898Z,36.53
2023-01-21T06:11:49.158Z,35.45
2023-01-21T06:12:52.121Z,34.80
2023-01-21T06:13:54.387Z,35.42
2023-01-21T06:14:56.606Z,40.13
2023-01-21T06:15:58.867Z,32.38
2023-01-21T06:17:01.218Z,35.00
2023-01-21T06:18:03.688Z,35.45
2023-01-21T06:19:05.919Z,36.53
2023-01-21T06:20:08.936Z,35.45
2023-01-21T06:21:11.207Z,33.85
2023-01-21T06:22:15.825Z,37.72
2023-01-21T06:23:18.386Z,37.78
2023-01-21T06:24:20.826Z,38.58
2023-01-21T06:25:23.920Z,35.15
2023-01-21T06:26:27.215Z,34.95
2023-01-21T06:27:29.643Z,36.35
2023-01-21T06:28:32.024Z,34.50
2023-01-21T06:29:34.268Z,39.53
2023-01-21T06:30:36.499Z,35.15
2023-01-21T06:31:39.396Z,38.50
2023-01-21T06:32:41.718Z,38.72
2023-01-21T06:33:43.954Z,33.75
2023-01-21T06:34:46.820Z,37.83
2023-01-21T06:35:49.113Z,40.70
2023-01-21T06:36:51.379Z,36.10
2023-01-21T06:37:53.701Z,34.00
2023-01-21T06:38:55.987Z,34.38
2023-01-21T06:39:58.220Z,39.20
2023-01-21T06:41:00.479Z,31.63
2023-01-21T06:42:03.055Z,30.23
2023-01-21T06:43:05.271Z,50.35
2023-01-21T06:44:07.620Z,36.50
2023-01-21T06:45:10.232Z,47.15
2023-01-21T06:46:12.538Z,83.03
2023-01-21T06:47:15.023Z,44.17
2023-01-21T06:48:17.364Z,85.28
2023-01-21T06:49:19.765Z,96.30
2023-01-21T06:50:22.181Z,64.90
2023-01-21T06:51:24.477Z,92.82
2023-01-21T06:52:26.694Z,58.97
2023-01-21T06:53:29.023Z,31.40
2023-01-21T06:54:31.280Z,34.78
2023-01-21T06:55:33.533Z,34.63
2023-01-21T06:56:36.828Z,32.30
2023-01-21T06:57:39.811Z,34.65
2023-01-21T06:58:41.993Z,34.30
2023-01-21T06:59:44.576Z,36.72
2023-01-21T07:00:46.764Z,30.35
2023-01-21T07:01:49.140Z,33.55
2023-01-21T07:02:56.058Z,30.20
2023-01-21T07:03:59.966Z,33.33
2023-01-21T07:05:03.050Z,35.63
2023-01-21T07:06:05.632Z,35.05
2023-01-21T07:07:08.055Z,43.92
2023-01-21T07:08:10.349Z,35.78
2023-01-21T07:09:12.719Z,37.55
2023-01-21T07:10:15.334Z,32.72
2023-01-21T07:11:17.858Z,36.25
2023-01-21T07:12:20.085Z,34.67
2023-01-21T07:13:22.947Z,48.10
2023-01-21T07:14:25.194Z,35.17
2023-01-21T07:15:30.793Z,34.33
2023-01-21T07:16:33.028Z,32.65
2023-01-21T07:17:35.385Z,27.92
2023-01-21T07:18:37.643Z,33.85
2023-01-21T07:19:39.986Z,30.67
2023-01-21T07:20:42.519Z,33.25
2023-01-21T07:21:45.047Z,33.83
2023-01-21T07:22:47.269Z,35.35
2023-01-21T07:23:52.492Z,32.40
2023-01-21T07:24:54.697Z,32.25
2023-01-21T07:25:56.895Z,31.92
2023-01-21T07:26:59.226Z,32.05
2023-01-21T07:28:01.840Z,30.95
2023-01-21T07:29:07.870Z,43.47
2023-01-21T07:30:17.036Z,34.67
2023-01-21T07:31:19.609Z,51.58
2023-01-21T07:32:22.006Z,53.50
2023-01-21T07:33:24.206Z,40.90
2023-01-21T07:34:26.404Z,31.90
2023-01-21T07:35:28.632Z,34.20
2023-01-21T07:36:31.015Z,32.53
2023-01-21T07:37:33.233Z,39.30
2023-01-21T07:38:35.524Z,39.70
2023-01-21T07:39:37.715Z,29.00
2023-01-21T07:40:40.002Z,34.45
2023-01-21T07:41:42.204Z,31.15
2023-01-21T07:42:54.211Z,31.92
2023-01-21T07:43:56.467Z,29.65
2023-01-21T07:44:59.515Z,34.92
2023-01-21T07:46:01.726Z,30.55
2023-01-21T07:47:04.005Z,35.13
2023-01-21T07:48:06.538Z,28.80
2023-01-21T07:49:08.850Z,29.95
2023-01-21T07:50:11.401Z,27.98
2023-01-21T07:51:13.621Z,33.10
2023-01-21T07:52:15.860Z,30.60
2023-01-21T07:53:18.163Z,33.17
2023-01-21T07:54:20.356Z,31.83
2023-01-21T07:55:22.701Z,30.63
2023-01-21T07:56:26.717Z,30.35
2023-01-21T07:57:28.904Z,31.27
2023-01-21T07:58:31.126Z,34.67
2023-01-21T07:59:33.367Z,34.88
2023-01-21T08:00:35.633Z,30.45
2023-01-21T08:01:37.885Z,31.33
2023-01-21T08:02:40.644Z,39.08
2023-01-21T08:03:43.107Z,33.42
2023-01-21T08:04:45.345Z,33.30
2023-01-21T08:05:47.722Z,32.28
2023-01-21T08:06:52.923Z,32.08
2023-01-21T08:07:57.658Z,30.83
2023-01-21T08:08:59.874Z,30.58
2023-01-21T08:10:02.635Z,32.67
2023-01-21T08:11:05.047Z,29.33
2023-01-21T08:12:08.491Z,31.38
2023-01-21T08:13:11.331Z,30.80
2023-01-21T08:14:13.611Z,32.47
2023-01-21T08:15:16.163Z,28.52
2023-01-21T08:16:18.715Z,34.20
2023-01-21T08:17:21.164Z,33.90
2023-01-21T08:18:24.490Z,30.05
2023-01-21T08:19:26.870Z,33.22
2023-01-21T08:20:29.095Z,33.33
2023-01-21T08:21:31.386Z,35.03
2023-01-21T08:22:33.695Z,33.40
2023-01-21T08:23:36.325Z,32.72
2023-01-21T08:24:38.606Z,29.05
2023-01-21T08:25:41.622Z,33.70
2023-01-21T08:26:44.470Z,34.40
2023-01-21T08:27:46.693Z,32.42
2023-01-21T08:28:48.923Z,33.75
2023-01-21T08:29:51.145Z,34.00
2023-01-21T08:30:53.494Z,33.13
2023-01-21T08:31:55.828Z,32.05
2023-01-21T08:32:58.152Z,35.03
2023-01-21T08:34:00.710Z,31.50
2023-01-21T08:35:03.064Z,28.83
2023-01-21T08:36:07.491Z,30.23
2023-01-21T08:37:10.671Z,28.85
2023-01-21T08:38:12.881Z,34.70
2023-01-21T08:39:18.054Z,32.60
2023-01-21T08:40:20.269Z,30.50
2023-01-21T08:41:22.579Z,42.97
2023-01-21T08:42:24.936Z,43.22
2023-01-21T08:43:27.674Z,42.33
2023-01-21T08:44:29.929Z,35.92
2023-01-21T08:45:32.159Z,29.52
2023-01-21T08:46:34.468Z,33.67
2023-01-21T08:47:36.687Z,43.35
2023-01-21T08:48:38.966Z,39.05
2023-01-21T08:49:41.166Z,46.85
2023-01-21T08:50:43.671Z,45.38
2023-01-21T08:51:45.858Z,37.85
2023-01-21T08:52:52.897Z,31.38
2023-01-21T08:53:55.070Z,33.00
2023-01-21T08:54:57.331Z,28.35
2023-01-21T08:56:00.874Z,29.95
2023-01-21T08:57:03.238Z,33.85
2023-01-21T08:58:05.458Z,28.75
2023-01-21T08:59:07.797Z,30.98
2023-01-21T09:00:10.633Z,27.80
2023-01-21T09:01:17.649Z,26.23
2023-01-21T09:02:19.901Z,26.98
2023-01-21T09:03:22.280Z,26.67
2023-01-21T09:04:24.645Z,27.85
2023-01-21T09:05:26.965Z,27.92
2023-01-21T09:06:30.150Z,28.17
2023-01-21T09:07:32.356Z,26.25
2023-01-21T09:08:36.382Z,29.35
2023-01-21T09:09:38.564Z,24.77
2023-01-21T09:10:59.195Z,25.35
2023-01-21T09:12:01.466Z,29.13
2023-01-21T09:13:05.295Z,23.70
2023-01-21T09:14:07.628Z,26.48
2023-01-21T09:15:10.073Z,23.27
2023-01-21T09:16:20.096Z,24.45
2023-01-21T09:17:22.861Z,24.23
2023-01-21T09:18:25.395Z,23.73
2023-01-21T09:19:28.091Z,24.75
2023-01-21T09:20:30.317Z,25.05
2023-01-21T09:21:34.767Z,30.83
2023-01-21T09:22:37.100Z,35.50
2023-01-21T09:23:40.141Z,29.77
2023-01-21T09:24:42.368Z,29.13
2023-01-21T09:25:44.570Z,23.67
2023-01-21T09:26:46.807Z,36.88
2023-01-21T09:27:49.164Z,57.80
2023-01-21T09:28:53.895Z,27.95
2023-01-21T09:29:56.085Z,23.55
2023-01-21T09:31:00.073Z,21.52
2023-01-21T09:32:05.185Z,20.02
2023-01-21T09:33:07.447Z,23.98
2023-01-21T09:34:10.708Z,22.38
2023-01-21T09:35:13.013Z,26.77
2023-01-21T09:36:20.921Z,26.50
2023-01-21T09:37:23.105Z,22.50
2023-01-21T09:38:26.421Z,20.40
2023-01-21T09:39:28.679Z,21.98
2023-01-21T09:40:31.112Z,26.27
2023-01-21T09:41:44.183Z,22.08
2023-01-21T09:42:47.250Z,27.05
2023-01-21T09:44:13.342Z,21.10
2023-01-21T09:45:17.661Z,21.67
2023-01-21T09:46:34.487Z,22.10
2023-01-21T09:47:41.239Z,21.77
2023-01-21T09:48:47.579Z,22.50
2023-01-21T09:49:54.468Z,26.45
2023-01-21T09:51:02.433Z,23.15
2023-01-21T09:52:22.246Z,28.33
2023-01-21T09:53:32.294Z,20.95
2023-01-21T09:54:36.578Z,23.48
2023-01-21T09:55:47.478Z,27.95
2023-01-21T09:57:11.145Z,27.00
2023-01-21T09:58:36.904Z,27.48
2023-01-21T09:59:51.248Z,19.73
2023-01-21T10:00:59.840Z,26.33
2023-01-21T10:02:09.611Z,21.63
2023-01-21T10:03:42.061Z,22.23
2023-01-21T10:04:53.133Z,24.33
2023-01-21T10:06:09.636Z,22.65
2023-01-21T10:07:18.684Z,22.90
2023-01-21T10:08:26.911Z,23.88
2023-01-21T10:09:45.466Z,25.83
2023-01-21T10:10:54.656Z,25.27
2023-01-21T10:12:09.944Z,23.23
2023-01-21T10:13:29.741Z,23.30
2023-01-21T10:15:14.088Z,25.23
2023-01-21T10:16:57.630Z,27.30
2023-01-21T10:18:21.801Z,35.30
2023-01-21T10:19:30.242Z,31.40
2023-01-21T10:20:43.323Z,32.05
2023-01-21T10:21:52.685Z,32.38
2023-01-21T10:23:03.042Z,24.90
2023-01-21T10:24:15.237Z,25.88
2023-01-21T10:25:30.229Z,21.08
2023-01-21T10:26:34.519Z,21.02
2023-01-21T10:27:38.374Z,22.67
2023-01-21T10:28:43.539Z,23.17
2023-01-21T10:29:53.744Z,21.95
2023-01-21T10:31:07.166Z,19.92
2023-01-21T10:32:15.776Z,17.90
2023-01-21T10:33:24.144Z,25.63
2023-01-21T10:34:35.468Z,23.45
2023-01-21T10:36:05.113Z,20.13
2023-01-21T10:37:17.730Z,20.38
2023-01-21T10:38:33.738Z,19.70
2023-01-21T10:39:47.586Z,22.08
2023-01-21T10:41:10.819Z,20.98
2023-01-21T10:42:54.410Z,20.10
2023-01-21T10:44:42.832Z,19.05
2023-01-21T10:46:06.706Z,19.17
2023-01-21T10:47:40.274Z,19.15
2023-01-21T10:50:25.734Z,22.83
2023-01-21T10:51:39.531Z,20.92
2023-01-21T10:52:49.722Z,24.40
2023-01-21T10:54:07.077Z,23.35
2023-01-21T10:55:35.741Z,24.65
2023-01-21T10:57:27.019Z,22.80
2023-01-21T10:58:36.223Z,24.83
2023-01-21T10:59:39.730Z,20.55
2023-01-21T11:00:47.410Z,23.02
2023-01-21T11:01:58.329Z,23.15
2023-01-21T11:03:08.156Z,22.33
2023-01-21T11:04:15.342Z,19.40
2023-01-21T11:05:19.088Z,23.63
2023-01-21T11:06:23.804Z,25.73
2023-01-21T11:07:27.404Z,25.05
2023-01-21T11:08:29.794Z,21.25
2023-01-21T11:09:37.193Z,24.92
2023-01-21T11:10:39.948Z,20.13
2023-01-21T11:11:42.970Z,19.85
2023-01-21T11:12:45.272Z,20.58
2023-01-21T11:13:47.489Z,21.25
2023-01-21T11:14:58.209Z,21.25
2023-01-21T11:16:02.053Z,37.78
2023-01-21T11:17:04.452Z,39.90
2023-01-21T11:18:26.372Z,29.27
2023-01-21T11:19:30.924Z,19.50
2023-01-21T11:20:41.436Z,25.02
2023-01-21T11:22:06.046Z,29.88
2023-01-21T11:23:27.254Z,25.02
2023-01-21T11:24:32.077Z,23.67
2023-01-21T11:25:41.335Z,18.75
2023-01-21T11:26:50.822Z,21.02
2023-01-21T11:27:53.073Z,20.35
2023-01-21T11:29:13.864Z,23.20
2023-01-21T11:30:48.689Z,21.55
2023-01-21T11:32:02.311Z,20.88
2023-01-21T11:33:26.573Z,20.35
2023-01-21T11:34:29.586Z,25.58
2023-01-21T11:35:31.910Z,22.10
2023-01-21T11:36:34.407Z,22.73
2023-01-21T11:37:37.816Z,25.88
2023-01-21T11:38:40.474Z,26.48
2023-01-21T11:40:11.279Z,22.10
2023-01-21T11:41:13.494Z,23.70
2023-01-21T11:42:18.115Z,22.27
2023-01-21T11:43:53.189Z,21.48
2023-01-21T11:45:05.856Z,28.13
2023-01-21T11:46:26.087Z,31.15
2023-01-21T11:47:46.386Z,32.08
2023-01-21T11:48:48.880Z,28.13
2023-01-21T11:49:51.368Z,23.83
2023-01-21T11:51:06.752Z,26.70
2023-01-21T11:52:19.018Z,32.50
2023-01-21T11:53:21.320Z,26.83
2023-01-21T11:54:24.721Z,28.73
2023-01-21T11:55:27.770Z,27.17
2023-01-21T11:56:30.100Z,23.05
2023-01-21T11:57:33.440Z,30.70
2023-01-21T11:58:39.337Z,29.92
2023-01-21T11:59:47.443Z,28.00
2023-01-21T12:00:53.187Z,23.45
2023-01-21T12:02:12.171Z,29.60
2023-01-21T12:03:18.240Z,26.75
2023-01-21T12:04:20.652Z,25.25
2023-01-21T12:05:43.101Z,24.52
2023-01-21T12:06:48.325Z,29.60
2023-01-21T12:07:52.453Z,33.05
2023-01-21T12:08:57.521Z,25.48
2023-01-21T12:10:04.928Z,31.58
2023-01-21T12:11:08.384Z,25.45
2023-01-21T12:12:56.010Z,29.02
2023-01-21T12:14:15.409Z,27.15
2023-01-21T12:15:41.074Z,28.92
2023-01-21T12:17:06.848Z,27.23
2023-01-21T12:18:17.560Z,30.73
2023-01-21T12:19:41.537Z,30.33
2023-01-21T12:20:49.547Z,25.90
2023-01-21T12:22:19.560Z,25.63
2023-01-21T12:24:08.610Z,26.98
2023-01-21T12:25:20.510Z,26.13
2023-01-21T12:26:50.879Z,26.95
2023-01-21T12:28:25.647Z,27.73
2023-01-21T12:29:55.919Z,29.92
2023-01-21T12:31:25.032Z,27.88
2023-01-21T12:32:42.057Z,26.15
2023-01-21T12:33:58.260Z,30.75
2023-01-21T12:35:05.352Z,33.08
2023-01-21T12:36:22.105Z,29.52
2023-01-21T12:37:31.352Z,32.72
2023-01-21T12:38:54.131Z,31.85
2023-01-21T12:39:59.715Z,32.25
2023-01-21T12:41:23.855Z,29.63
2023-01-21T12:42:34.050Z,34.95
2023-01-21T12:43:41.932Z,33.28
2023-01-21T12:44:57.141Z,31.17
2023-01-21T12:46:06.129Z,32.22
2023-01-21T12:47:40.650Z,34.60
2023-01-21T12:48:51.754Z,33.15
2023-01-21T12:50:15.259Z,33.10
2023-01-21T12:51:32.415Z,34.72
2023-01-21T12:53:03.222Z,32.25
2023-01-21T12:54:23.598Z,33.85
2023-01-21T12:55:34.584Z,32.40
2023-01-21T12:56:43.625Z,54.53
2023-01-21T12:58:08.057Z,33.55
2023-01-21T12:59:42.187Z,51.15
2023-01-21T13:00:50.209Z,35.55
2023-01-21T13:01:59.561Z,35.17
2023-01-21T13:03:29.178Z,35.13
2023-01-21T13:04:42.484Z,36.33
2023-01-21T13:05:54.792Z,33.22
2023-01-21T13:07:06.843Z,37.22
2023-01-21T13:08:48.069Z,33.25
2023-01-21T13:10:01.958Z,36.17
2023-01-21T13:11:09.667Z,35.42
2023-01-21T13:12:19.038Z,30.60
2023-01-21T13:13:31.722Z,34.17
2023-01-21T13:14:45.622Z,35.42
2023-01-21T13:16:01.239Z,38.75
2023-01-21T13:17:12.754Z,40.00
2023-01-21T13:18:25.499Z,36.17
2023-01-21T13:19:27.711Z,40.30
2023-01-21T13:20:34.262Z,35.97
2023-01-21T13:21:42.919Z,34.20
2023-01-21T13:23:21.675Z,36.53
2023-01-21T13:25:04.606Z,35.17
2023-01-21T13:26:15.433Z,35.10
2023-01-21T13:27:41.750Z,37.78
2023-01-21T13:28:56.889Z,34.08
2023-01-21T13:30:28.711Z,30.63
2023-01-21T13:31:52.217Z,32.35
2023-01-21T13:33:10.059Z,32.03
2023-01-21T13:34:27.271Z,33.17
2023-01-21T13:36:30.371Z,31.17
2023-01-21T13:37:50.126Z,32.50
2023-01-21T13:38:58.447Z,36.30
2023-01-21T13:40:19.323Z,32.83
2023-01-21T13:41:24.612Z,31.88
2023-01-21T13:42:36.236Z,34.00
2023-01-21T13:43:54.169Z,32.67
2023-01-21T13:45:07.420Z,35.90
2023-01-21T13:46:31.068Z,39.53
2023-01-21T13:48:06.380Z,32.92
2023-01-21T13:49:13.958Z,29.33
2023-01-21T13:50:37.576Z,26.58
2023-01-21T13:51:56.533Z,25.77
2023-01-21T13:53:35.911Z,27.42
2023-01-21T13:54:49.731Z,27.73
2023-01-21T13:56:10.227Z,24.42
2023-01-21T13:57:23.999Z,24.73
2023-01-21T13:58:47.434Z,24.20
2023-01-21T13:59:57.529Z,26.70
2023-01-21T14:01:05.655Z,23.08
2023-01-21T14:02:20.300Z,22.52
2023-01-21T14:03:33.046Z,25.15
2023-01-21T14:04:48.968Z,26.25
2023-01-21T14:06:27.438Z,37.03
2023-01-21T14:07:41.405Z,35.35
2023-01-21T14:08:52.432Z,35.97
2023-01-21T14:10:05.363Z,36.13
2023-01-21T14:11:29.361Z,35.50
2023-01-21T14:12:44.440Z,28.92
2023-01-21T14:14:04.857Z,27.85
2023-01-21T14:15:26.178Z,29.95
2023-01-21T14:16:34.101Z,29.00
2023-01-21T14:18:03.118Z,30.80
2023-01-21T14:19:36.314Z,32.70
2023-01-21T14:21:06.488Z,29.30
2023-01-21T14:22:58.719Z,29.17
2023-01-21T14:24:28.045Z,27.30
2023-01-21T14:25:57.813Z,27.48
2023-01-21T14:27:27.287Z,30.15
2023-01-21T14:28:53.303Z,29.13
2023-01-21T14:30:37.333Z,29.30
2023-01-21T14:32:56.748Z,27.92
2023-01-21T14:34:06.099Z,28.65
2023-01-21T14:35:34.182Z,25.27
2023-01-21T14:36:56.148Z,30.33
2023-01-21T14:38:23.203Z,26.60
2023-01-21T14:39:49.467Z,24.42
2023-01-21T14:41:04.617Z,26.17
2023-01-21T14:42:10.735Z,24.98
2023-01-21T14:43:40.747Z,27.23
2023-01-21T14:44:48.830Z,30.08
2023-01-21T14:45:54.633Z,25.73